sensor_id;sensor_type;location;lat;lon;timestamp;pressure;altitude;pressure_sealevel;temperature;humidity
73453;BME280;61687;56.232;43.854;2023-03-01T00:01:10;99242.25;;;-4.55;72.31
73453;BME280;61687;56.232;43.854;2023-03-01T00:03:36;99256.19;;;-4.58;71.91
73453;BME280;61687;56.232;43.854;2023-03-01T00:06:03;99255.53;;;-4.69;72.02
73453;BME280;61687;56.232;43.854;2023-03-01T00:08:30;99254.53;;;-4.54;72.08
73453;BME280;61687;56.232;43.854;2023-03-01T00:11:15;99252.22;;;-4.61;72.30
73453;BME280;61687;56.232;43.854;2023-03-01T00:13:42;99261.97;;;-4.70;72.67
73453;BME280;61687;56.232;43.854;2023-03-01T00:16:12;99252.31;;;-4.66;73.91
73453;BME280;61687;56.232;43.854;2023-03-01T00:18:39;99252.69;;;-4.73;73.63
73453;BME280;61687;56.232;43.854;2023-03-01T00:21:05;99240.91;;;-4.72;73.74
73453;BME280;61687;56.232;43.854;2023-03-01T00:23:33;99235.97;;;-4.65;73.76
73453;BME280;61687;56.232;43.854;2023-03-01T00:25:59;99235.25;;;-4.70;72.82
73453;BME280;61687;56.232;43.854;2023-03-01T00:28:25;99243.78;;;-4.68;72.53
73453;BME280;61687;56.232;43.854;2023-03-01T00:30:51;99231.81;;;-4.71;72.15
73453;BME280;61687;56.232;43.854;2023-03-01T00:33:17;99240.09;;;-4.72;72.08
73453;BME280;61687;56.232;43.854;2023-03-01T00:35:43;99239.97;;;-4.81;71.81
73453;BME280;61687;56.232;43.854;2023-03-01T00:38:10;99243.13;;;-4.79;70.93
73453;BME280;61687;56.232;43.854;2023-03-01T00:40:36;99243.13;;;-4.79;71.00
73453;BME280;61687;56.232;43.854;2023-03-01T00:43:03;99244.09;;;-4.89;70.34
73453;BME280;61687;56.232;43.854;2023-03-01T00:45:33;99241.28;;;-4.79;70.13
73453;BME280;61687;56.232;43.854;2023-03-01T00:47:59;99237.28;;;-4.81;69.65
73453;BME280;61687;56.232;43.854;2023-03-01T00:50:25;99241.56;;;-4.80;69.08
73453;BME280;61687;56.232;43.854;2023-03-01T00:52:54;99235.19;;;-4.84;69.04
73453;BME280;61687;56.232;43.854;2023-03-01T00:55:21;99229.22;;;-4.76;69.17
73453;BME280;61687;56.232;43.854;2023-03-01T00:57:48;99243.72;;;-4.82;69.11
73453;BME280;61687;56.232;43.854;2023-03-01T01:00:14;99239.19;;;-4.82;68.86
73453;BME280;61687;56.232;43.854;2023-03-01T01:02:40;99237.88;;;-4.84;68.02
73453;BME280;61687;56.232;43.854;2023-03-01T01:05:07;99241.13;;;-4.88;67.93
73453;BME280;61687;56.232;43.854;2023-03-01T01:07:33;99246.34;;;-4.96;68.35
73453;BME280;61687;56.232;43.854;2023-03-01T01:09:59;99243.25;;;-5.04;68.24
73453;BME280;61687;56.232;43.854;2023-03-01T01:12:25;99242.66;;;-5.00;68.24
73453;BME280;61687;56.232;43.854;2023-03-01T01:14:51;99247.66;;;-4.94;68.13
73453;BME280;61687;56.232;43.854;2023-03-01T01:17:17;99243.97;;;-4.98;68.31
73453;BME280;61687;56.232;43.854;2023-03-01T01:19:42;99244.38;;;-4.91;68.04
73453;BME280;61687;56.232;43.854;2023-03-01T01:22:09;99242.50;;;-4.90;67.75
73453;BME280;61687;56.232;43.854;2023-03-01T01:24:35;99248.66;;;-4.90;68.03
73453;BME280;61687;56.232;43.854;2023-03-01T01:27:01;99246.47;;;-4.88;67.78
73453;BME280;61687;56.232;43.854;2023-03-01T01:29:27;99253.78;;;-4.93;67.80
73453;BME280;61687;56.232;43.854;2023-03-01T01:31:53;99250.50;;;-4.90;67.79
73453;BME280;61687;56.232;43.854;2023-03-01T01:34:21;99247.06;;;-4.91;67.50
73453;BME280;61687;56.232;43.854;2023-03-01T01:36:48;99254.50;;;-4.88;67.68
73453;BME280;61687;56.232;43.854;2023-03-01T01:39:15;99250.50;;;-4.90;67.43
73453;BME280;61687;56.232;43.854;2023-03-01T01:41:41;99246.56;;;-4.93;67.45
73453;BME280;61687;56.232;43.854;2023-03-01T01:47:04;99254.06;;;-4.95;67.53
73453;BME280;61687;56.232;43.854;2023-03-01T01:49:40;99258.34;;;-4.94;66.93
73453;BME280;61687;56.232;43.854;2023-03-01T01:54:59;99250.69;;;-5.00;67.69
73453;BME280;61687;56.232;43.854;2023-03-01T01:57:35;99244.88;;;-4.89;67.67
73453;BME280;61687;56.232;43.854;2023-03-01T02:00:10;99250.22;;;-4.89;67.23
73453;BME280;61687;56.232;43.854;2023-03-01T02:02:40;99244.97;;;-4.94;66.71
73453;BME280;61687;56.232;43.854;2023-03-01T02:05:16;99253.13;;;-5.04;67.03
73453;BME280;61687;56.232;43.854;2023-03-01T02:07:45;99248.34;;;-5.07;67.36
73453;BME280;61687;56.232;43.854;2023-03-01T02:10:12;99254.50;;;-5.07;66.99
73453;BME280;61687;56.232;43.854;2023-03-01T02:12:38;99245.22;;;-5.34;67.91
73453;BME280;61687;56.232;43.854;2023-03-01T02:15:05;99263.56;;;-5.46;67.91
73453;BME280;61687;56.232;43.854;2023-03-01T02:17:32;99254.25;;;-5.49;67.94
73453;BME280;61687;56.232;43.854;2023-03-01T02:20:20;99254.75;;;-5.47;68.17
73453;BME280;61687;56.232;43.854;2023-03-01T02:22:48;99261.31;;;-5.39;67.98
73453;BME280;61687;56.232;43.854;2023-03-01T02:25:32;99269.41;;;-5.44;68.17
73453;BME280;61687;56.232;43.854;2023-03-01T02:30:32;99272.50;;;-5.56;68.29
73453;BME280;61687;56.232;43.854;2023-03-01T02:33:00;99274.59;;;-5.53;68.32
73453;BME280;61687;56.232;43.854;2023-03-01T02:35:34;99265.72;;;-5.72;68.74
73453;BME280;61687;56.232;43.854;2023-03-01T02:38:02;99274.97;;;-5.89;69.24
73453;BME280;61687;56.232;43.854;2023-03-01T02:40:30;99273.97;;;-5.93;69.36
73453;BME280;61687;56.232;43.854;2023-03-01T02:42:58;99270.34;;;-6.02;69.61
73453;BME280;61687;56.232;43.854;2023-03-01T02:45:26;99271.44;;;-6.04;69.72
73453;BME280;61687;56.232;43.854;2023-03-01T02:47:56;99270.06;;;-6.01;69.52
73453;BME280;61687;56.232;43.854;2023-03-01T02:53:04;99274.28;;;-6.00;69.63
73453;BME280;61687;56.232;43.854;2023-03-01T02:55:33;99272.44;;;-5.99;69.60
73453;BME280;61687;56.232;43.854;2023-03-01T02:58:02;99268.38;;;-5.97;69.48
73453;BME280;61687;56.232;43.854;2023-03-01T03:00:36;99269.75;;;-5.99;69.77
73453;BME280;61687;56.232;43.854;2023-03-01T03:03:06;99268.22;;;-6.06;70.03
73453;BME280;61687;56.232;43.854;2023-03-01T03:05:33;99268.16;;;-6.00;70.23
73453;BME280;61687;56.232;43.854;2023-03-01T03:08:01;99264.50;;;-6.05;70.22
73453;BME280;61687;56.232;43.854;2023-03-01T03:10:33;99270.69;;;-6.09;70.60
73453;BME280;61687;56.232;43.854;2023-03-01T03:13:05;99261.88;;;-6.10;70.73
73453;BME280;61687;56.232;43.854;2023-03-01T03:15:33;99275.50;;;-6.11;70.81
73453;BME280;61687;56.232;43.854;2023-03-01T03:18:04;99272.09;;;-6.17;70.98
73453;BME280;61687;56.232;43.854;2023-03-01T03:20:30;99270.34;;;-6.02;70.69
73453;BME280;61687;56.232;43.854;2023-03-01T03:22:57;99271.03;;;-5.97;70.01
73453;BME280;61687;56.232;43.854;2023-03-01T03:25:24;99273.13;;;-5.89;69.91
73453;BME280;61687;56.232;43.854;2023-03-01T03:27:52;99265.31;;;-5.85;69.52
73453;BME280;61687;56.232;43.854;2023-03-01T03:30:26;99273.06;;;-5.83;69.17
73453;BME280;61687;56.232;43.854;2023-03-01T03:32:54;99264.72;;;-5.77;69.06
73453;BME280;61687;56.232;43.854;2023-03-01T03:35:32;99272.38;;;-5.70;68.94
73453;BME280;61687;56.232;43.854;2023-03-01T03:38:00;99282.44;;;-5.62;69.06
73453;BME280;61687;56.232;43.854;2023-03-01T03:40:38;99275.72;;;-5.59;68.76
73453;BME280;61687;56.232;43.854;2023-03-01T03:43:08;99276.31;;;-5.62;68.69
73453;BME280;61687;56.232;43.854;2023-03-01T03:45:35;99282.44;;;-5.62;68.60
73453;BME280;61687;56.232;43.854;2023-03-01T03:48:03;99278.34;;;-5.54;68.42
73453;BME280;61687;56.232;43.854;2023-03-01T03:50:30;99275.59;;;-5.49;68.16
73453;BME280;61687;56.232;43.854;2023-03-01T03:52:56;99281.28;;;-5.55;68.12
73453;BME280;61687;56.232;43.854;2023-03-01T03:55:22;99281.09;;;-5.64;68.26
73453;BME280;61687;56.232;43.854;2023-03-01T03:57:48;99285.72;;;-5.70;68.36
73453;BME280;61687;56.232;43.854;2023-03-01T04:00:21;99286.34;;;-5.54;68.64
73453;BME280;61687;56.232;43.854;2023-03-01T04:02:50;99291.91;;;-5.50;68.11
73453;BME280;61687;56.232;43.854;2023-03-01T04:05:18;99288.34;;;-5.40;68.08
73453;BME280;61687;56.232;43.854;2023-03-01T04:07:45;99290.94;;;-5.35;68.22
73453;BME280;61687;56.232;43.854;2023-03-01T04:10:17;99288.69;;;-5.28;67.51
73453;BME280;61687;56.232;43.854;2023-03-01T04:12:44;99293.38;;;-5.39;67.73
73453;BME280;61687;56.232;43.854;2023-03-01T04:15:11;99287.78;;;-5.42;68.10
73453;BME280;61687;56.232;43.854;2023-03-01T04:17:41;99294.22;;;-5.43;67.55
73453;BME280;61687;56.232;43.854;2023-03-01T04:20:14;99301.72;;;-5.46;67.88
73453;BME280;61687;56.232;43.854;2023-03-01T04:22:43;99294.44;;;-5.40;67.92
73453;BME280;61687;56.232;43.854;2023-03-01T04:25:13;99293.53;;;-5.30;67.90
73453;BME280;61687;56.232;43.854;2023-03-01T04:27:40;99302.47;;;-5.40;67.75
73453;BME280;61687;56.232;43.854;2023-03-01T04:30:08;99312.88;;;-5.38;67.87
73453;BME280;61687;56.232;43.854;2023-03-01T04:32:34;99303.28;;;-5.39;67.56
73453;BME280;61687;56.232;43.854;2023-03-01T04:35:00;99316.63;;;-5.39;67.91
73453;BME280;61687;56.232;43.854;2023-03-01T04:37:27;99309.69;;;-5.40;68.24
73453;BME280;61687;56.232;43.854;2023-03-01T04:39:53;99317.13;;;-5.37;68.02
73453;BME280;61687;56.232;43.854;2023-03-01T04:42:19;99317.03;;;-5.51;67.90
73453;BME280;61687;56.232;43.854;2023-03-01T04:44:45;99325.94;;;-5.61;68.48
73453;BME280;61687;56.232;43.854;2023-03-01T04:47:12;99335.91;;;-5.48;68.53
73453;BME280;61687;56.232;43.854;2023-03-01T04:49:38;99336.50;;;-5.51;68.36
73453;BME280;61687;56.232;43.854;2023-03-01T04:52:04;99326.31;;;-5.49;68.49
73453;BME280;61687;56.232;43.854;2023-03-01T04:54:33;99326.22;;;-5.63;68.55
73453;BME280;61687;56.232;43.854;2023-03-01T04:57:00;99327.63;;;-5.46;68.36
73453;BME280;61687;56.232;43.854;2023-03-01T04:59:26;99335.66;;;-5.46;68.31
73453;BME280;61687;56.232;43.854;2023-03-01T05:01:53;99329.56;;;-5.52;68.51
73453;BME280;61687;56.232;43.854;2023-03-01T05:04:24;99332.97;;;-5.46;68.13
73453;BME280;61687;56.232;43.854;2023-03-01T05:06:50;99335.84;;;-5.42;68.13
73453;BME280;61687;56.232;43.854;2023-03-01T05:09:16;99334.16;;;-5.33;68.15
73453;BME280;61687;56.232;43.854;2023-03-01T05:11:42;99335.00;;;-5.13;67.90
73453;BME280;61687;56.232;43.854;2023-03-01T05:14:10;99341.22;;;-4.99;67.24
73453;BME280;61687;56.232;43.854;2023-03-01T05:16:36;99336.44;;;-5.02;66.83
73453;BME280;61687;56.232;43.854;2023-03-01T05:19:05;99328.00;;;-5.09;66.82
73453;BME280;61687;56.232;43.854;2023-03-01T05:21:38;99326.91;;;-5.08;66.96
73453;BME280;61687;56.232;43.854;2023-03-01T05:24:27;99336.59;;;-5.12;66.86
73453;BME280;61687;56.232;43.854;2023-03-01T05:26:53;99340.69;;;-5.20;67.30
73453;BME280;61687;56.232;43.854;2023-03-01T05:29:21;99337.34;;;-5.31;67.84
73453;BME280;61687;56.232;43.854;2023-03-01T05:31:55;99343.69;;;-5.27;67.82
73453;BME280;61687;56.232;43.854;2023-03-01T05:34:29;99348.13;;;-5.17;67.25
73453;BME280;61687;56.232;43.854;2023-03-01T05:36:56;99346.63;;;-5.04;67.28
73453;BME280;61687;56.232;43.854;2023-03-01T05:39:24;99342.78;;;-5.17;66.74
73453;BME280;61687;56.232;43.854;2023-03-01T05:41:56;99351.91;;;-4.99;66.61
73453;BME280;61687;56.232;43.854;2023-03-01T05:44:23;99350.34;;;-4.81;66.66
73453;BME280;61687;56.232;43.854;2023-03-01T05:46:49;99337.94;;;-5.15;65.98
73453;BME280;61687;56.232;43.854;2023-03-01T05:49:15;99346.78;;;-5.14;66.89
73453;BME280;61687;56.232;43.854;2023-03-01T05:51:41;99351.81;;;-5.13;66.85
73453;BME280;61687;56.232;43.854;2023-03-01T05:54:09;99353.44;;;-4.93;66.40
73453;BME280;61687;56.232;43.854;2023-03-01T05:56:36;99351.78;;;-4.69;66.08
73453;BME280;61687;56.232;43.854;2023-03-01T05:59:03;99352.88;;;-4.70;65.90
73453;BME280;61687;56.232;43.854;2023-03-01T06:01:29;99363.94;;;-4.77;65.57
73453;BME280;61687;56.232;43.854;2023-03-01T06:03:55;99361.81;;;-4.80;65.35
73453;BME280;61687;56.232;43.854;2023-03-01T06:06:22;99358.63;;;-4.82;65.50
73453;BME280;61687;56.232;43.854;2023-03-01T06:08:48;99365.91;;;-5.07;65.97
73453;BME280;61687;56.232;43.854;2023-03-01T06:11:14;99368.97;;;-4.95;66.09
73453;BME280;61687;56.232;43.854;2023-03-01T06:13:42;99367.78;;;-5.08;65.71
73453;BME280;61687;56.232;43.854;2023-03-01T06:16:08;99367.97;;;-5.23;66.08
73453;BME280;61687;56.232;43.854;2023-03-01T06:18:34;99367.16;;;-5.24;66.15
73453;BME280;61687;56.232;43.854;2023-03-01T06:21:00;99368.72;;;-5.18;66.04
73453;BME280;61687;56.232;43.854;2023-03-01T06:23:26;99371.38;;;-5.18;65.76
73453;BME280;61687;56.232;43.854;2023-03-01T06:25:52;99369.22;;;-5.15;65.30
73453;BME280;61687;56.232;43.854;2023-03-01T06:28:18;99373.41;;;-5.09;65.30
73453;BME280;61687;56.232;43.854;2023-03-01T06:30:44;99375.84;;;-4.89;64.79
73453;BME280;61687;56.232;43.854;2023-03-01T06:33:10;99369.41;;;-4.88;64.14
73453;BME280;61687;56.232;43.854;2023-03-01T06:35:36;99378.63;;;-4.99;64.69
73453;BME280;61687;56.232;43.854;2023-03-01T06:38:03;99376.56;;;-5.26;65.00
73453;BME280;61687;56.232;43.854;2023-03-01T06:40:30;99376.59;;;-5.07;64.93
73453;BME280;61687;56.232;43.854;2023-03-01T06:43:01;99369.75;;;-4.94;64.33
73453;BME280;61687;56.232;43.854;2023-03-01T06:45:26;99365.09;;;-4.64;63.86
73453;BME280;61687;56.232;43.854;2023-03-01T06:47:57;99353.81;;;-4.42;62.99
73453;BME280;61687;56.232;43.854;2023-03-01T06:50:26;99362.91;;;-4.43;62.58
73453;BME280;61687;56.232;43.854;2023-03-01T06:52:55;99371.50;;;-4.27;62.17
73453;BME280;61687;56.232;43.854;2023-03-01T06:55:21;99366.88;;;-4.21;61.99
73453;BME280;61687;56.232;43.854;2023-03-01T06:57:47;99354.84;;;-4.05;61.80
73453;BME280;61687;56.232;43.854;2023-03-01T07:00:14;99350.59;;;-3.92;61.71
73453;BME280;61687;56.232;43.854;2023-03-01T07:02:40;99364.00;;;-3.78;61.23
73453;BME280;61687;56.232;43.854;2023-03-01T07:05:06;99362.34;;;-3.74;60.98
73453;BME280;61687;56.232;43.854;2023-03-01T07:07:32;99354.63;;;-3.61;61.03
73453;BME280;61687;56.232;43.854;2023-03-01T07:09:57;99360.56;;;-3.64;60.82
73453;BME280;61687;56.232;43.854;2023-03-01T07:12:23;99352.56;;;-3.50;60.59
73453;BME280;61687;56.232;43.854;2023-03-01T07:14:49;99354.13;;;-3.49;60.64
73453;BME280;61687;56.232;43.854;2023-03-01T07:17:15;99355.81;;;-3.53;60.59
73453;BME280;61687;56.232;43.854;2023-03-01T07:19:41;99356.41;;;-3.70;61.12
73453;BME280;61687;56.232;43.854;2023-03-01T07:22:06;99357.28;;;-3.75;61.43
73453;BME280;61687;56.232;43.854;2023-03-01T07:24:35;99361.41;;;-3.50;61.19
73453;BME280;61687;56.232;43.854;2023-03-01T07:27:01;99371.81;;;-3.34;60.24
73453;BME280;61687;56.232;43.854;2023-03-01T07:29:27;99361.56;;;-3.60;60.31
73453;BME280;61687;56.232;43.854;2023-03-01T07:31:54;99361.34;;;-3.64;61.19
73453;BME280;61687;56.232;43.854;2023-03-01T07:34:20;99363.06;;;-3.54;60.63
73453;BME280;61687;56.232;43.854;2023-03-01T07:36:46;99359.09;;;-3.56;60.83
73453;BME280;61687;56.232;43.854;2023-03-01T07:39:13;99368.13;;;-3.52;61.14
73453;BME280;61687;56.232;43.854;2023-03-01T07:41:38;99357.31;;;-3.47;61.05
73453;BME280;61687;56.232;43.854;2023-03-01T07:44:04;99359.59;;;-3.40;61.11
73453;BME280;61687;56.232;43.854;2023-03-01T07:46:30;99362.47;;;-3.51;61.31
73453;BME280;61687;56.232;43.854;2023-03-01T07:48:56;99359.38;;;-3.44;60.71
73453;BME280;61687;56.232;43.854;2023-03-01T07:51:23;99365.25;;;-3.42;60.81
73453;BME280;61687;56.232;43.854;2023-03-01T07:53:49;99359.59;;;-3.40;60.63
73453;BME280;61687;56.232;43.854;2023-03-01T07:56:16;99371.13;;;-3.26;60.67
73453;BME280;61687;56.232;43.854;2023-03-01T07:58:44;99354.56;;;-3.28;60.53
73453;BME280;61687;56.232;43.854;2023-03-01T08:01:12;99363.09;;;-3.12;60.22
73453;BME280;61687;56.232;43.854;2023-03-01T08:03:39;99359.09;;;-3.14;59.97
73453;BME280;61687;56.232;43.854;2023-03-01T08:06:07;99362.97;;;-3.35;60.03
73453;BME280;61687;56.232;43.854;2023-03-01T08:08:34;99375.69;;;-3.26;60.16
73453;BME280;61687;56.232;43.854;2023-03-01T08:11:03;99365.78;;;-3.26;60.51
73453;BME280;61687;56.232;43.854;2023-03-01T08:13:30;99365.53;;;-3.02;60.23
73453;BME280;61687;56.232;43.854;2023-03-01T08:16:04;99374.25;;;-2.82;59.51
73453;BME280;61687;56.232;43.854;2023-03-01T08:18:30;99367.97;;;-2.63;58.91
73453;BME280;61687;56.232;43.854;2023-03-01T08:21:00;99365.09;;;-2.67;59.00
73453;BME280;61687;56.232;43.854;2023-03-01T08:23:26;99376.97;;;-2.59;58.50
73453;BME280;61687;56.232;43.854;2023-03-01T08:25:52;99374.47;;;-2.92;58.71
73453;BME280;61687;56.232;43.854;2023-03-01T08:28:18;99368.13;;;-3.10;59.65
73453;BME280;61687;56.232;43.854;2023-03-01T08:30:44;99384.63;;;-3.17;59.40
73453;BME280;61687;56.232;43.854;2023-03-01T08:33:10;99378.56;;;-3.23;60.15
73453;BME280;61687;56.232;43.854;2023-03-01T08:35:36;99387.19;;;-3.26;60.23
73453;BME280;61687;56.232;43.854;2023-03-01T08:38:01;99397.81;;;-3.35;60.16
73453;BME280;61687;56.232;43.854;2023-03-01T08:40:27;99400.78;;;-3.36;59.60
73453;BME280;61687;56.232;43.854;2023-03-01T08:42:53;99394.66;;;-3.23;59.09
73453;BME280;61687;56.232;43.854;2023-03-01T08:45:19;99386.59;;;-3.09;59.44
73453;BME280;61687;56.232;43.854;2023-03-01T08:47:45;99400.09;;;-3.14;58.56
73453;BME280;61687;56.232;43.854;2023-03-01T08:50:11;99404.16;;;-3.17;58.49
73453;BME280;61687;56.232;43.854;2023-03-01T08:52:36;99410.00;;;-3.00;58.71
73453;BME280;61687;56.232;43.854;2023-03-01T08:55:02;99416.56;;;-3.21;57.44
73453;BME280;61687;56.232;43.854;2023-03-01T08:57:29;99428.88;;;-3.34;57.06
73453;BME280;61687;56.232;43.854;2023-03-01T08:59:55;99432.41;;;-3.52;57.42
73453;BME280;61687;56.232;43.854;2023-03-01T09:02:21;99422.00;;;-3.40;57.66
73453;BME280;61687;56.232;43.854;2023-03-01T09:04:47;99412.97;;;-3.44;57.61
73453;BME280;61687;56.232;43.854;2023-03-01T09:07:13;99415.16;;;-3.32;57.86
73453;BME280;61687;56.232;43.854;2023-03-01T09:09:39;99425.59;;;-3.17;57.19
73453;BME280;61687;56.232;43.854;2023-03-01T09:12:05;99418.38;;;-3.16;57.07
73453;BME280;61687;56.232;43.854;2023-03-01T09:14:31;99420.94;;;-2.97;56.79
73453;BME280;61687;56.232;43.854;2023-03-01T09:16:57;99414.69;;;-3.06;57.03
73453;BME280;61687;56.232;43.854;2023-03-01T09:19:23;99426.19;;;-3.34;57.04
73453;BME280;61687;56.232;43.854;2023-03-01T09:21:48;99427.28;;;-3.21;56.74
73453;BME280;61687;56.232;43.854;2023-03-01T09:24:23;99417.38;;;-3.06;57.62
73453;BME280;61687;56.232;43.854;2023-03-01T09:26:49;99415.06;;;-2.71;57.35
73453;BME280;61687;56.232;43.854;2023-03-01T09:29:18;99416.72;;;-2.61;56.13
73453;BME280;61687;56.232;43.854;2023-03-01T09:31:43;99415.47;;;-2.92;57.36
73453;BME280;61687;56.232;43.854;2023-03-01T09:34:09;99421.53;;;-3.00;58.13
73453;BME280;61687;56.232;43.854;2023-03-01T09:36:35;99417.97;;;-2.81;57.76
73453;BME280;61687;56.232;43.854;2023-03-01T09:39:02;99409.88;;;-2.53;57.12
73453;BME280;61687;56.232;43.854;2023-03-01T09:45:02;99421.50;;;-2.44;56.63
73453;BME280;61687;56.232;43.854;2023-03-01T09:47:32;99407.34;;;-2.36;56.62
73453;BME280;61687;56.232;43.854;2023-03-01T09:50:12;99419.00;;;-2.18;56.67
73453;BME280;61687;56.232;43.854;2023-03-01T09:55:38;99411.22;;;-2.05;55.99
73453;BME280;61687;56.232;43.854;2023-03-01T10:01:05;99405.50;;;-1.81;53.48
73453;BME280;61687;56.232;43.854;2023-03-01T10:04:11;99409.72;;;-2.34;54.17
73453;BME280;61687;56.232;43.854;2023-03-01T10:06:34;99394.69;;;-2.21;54.44
73453;BME280;61687;56.232;43.854;2023-03-01T10:11:33;99400.94;;;-2.26;55.45
73453;BME280;61687;56.232;43.854;2023-03-01T10:16:52;99402.72;;;-2.21;54.99
73453;BME280;61687;56.232;43.854;2023-03-01T10:19:46;99402.75;;;-1.98;54.72
73453;BME280;61687;56.232;43.854;2023-03-01T10:22:20;99419.94;;;-1.77;54.42
73453;BME280;61687;56.232;43.854;2023-03-01T10:24:50;99409.44;;;-2.10;52.88
73453;BME280;61687;56.232;43.854;2023-03-01T10:27:22;99417.94;;;-2.31;54.29
73453;BME280;61687;56.232;43.854;2023-03-01T10:32:22;99417.69;;;-2.43;55.03
73453;BME280;61687;56.232;43.854;2023-03-01T10:34:47;99407.56;;;-2.46;54.74
73453;BME280;61687;56.232;43.854;2023-03-01T10:37:16;99411.16;;;-2.51;55.77
73453;BME280;61687;56.232;43.854;2023-03-01T10:40:01;99411.97;;;-2.64;55.47
73453;BME280;61687;56.232;43.854;2023-03-01T10:42:34;99409.50;;;-2.61;55.87
73453;BME280;61687;56.232;43.854;2023-03-01T10:45:33;99409.25;;;-2.50;55.00
73453;BME280;61687;56.232;43.854;2023-03-01T10:48:21;99416.31;;;-2.54;55.22
73453;BME280;61687;56.232;43.854;2023-03-01T10:53:36;99417.56;;;-3.03;56.78
73453;BME280;61687;56.232;43.854;2023-03-01T10:56:08;99417.56;;;-2.89;56.82
73453;BME280;61687;56.232;43.854;2023-03-01T10:58:36;99421.53;;;-2.86;55.59
73453;BME280;61687;56.232;43.854;2023-03-01T11:01:04;99418.34;;;-2.74;55.34
73453;BME280;61687;56.232;43.854;2023-03-01T11:03:36;99415.53;;;-2.55;55.07
73453;BME280;61687;56.232;43.854;2023-03-01T11:08:43;99416.47;;;-2.74;55.53
73453;BME280;61687;56.232;43.854;2023-03-01T11:11:37;99404.94;;;-2.74;55.67
73453;BME280;61687;56.232;43.854;2023-03-01T11:14:17;99409.09;;;-2.82;55.28
73453;BME280;61687;56.232;43.854;2023-03-01T11:16:46;99416.56;;;-2.65;55.10
73453;BME280;61687;56.232;43.854;2023-03-01T11:19:16;99424.53;;;-2.37;55.25
73453;BME280;61687;56.232;43.854;2023-03-01T11:21:54;99414.22;;;-2.43;54.46
73453;BME280;61687;56.232;43.854;2023-03-01T11:24:29;99411.72;;;-2.40;54.17
73453;BME280;61687;56.232;43.854;2023-03-01T11:26:57;99413.31;;;-2.39;54.11
73453;BME280;61687;56.232;43.854;2023-03-01T11:29:38;99423.06;;;-2.43;54.17
73453;BME280;61687;56.232;43.854;2023-03-01T11:32:09;99409.38;;;-2.55;54.26
73453;BME280;61687;56.232;43.854;2023-03-01T11:34:49;99412.66;;;-2.22;54.06
73453;BME280;61687;56.232;43.854;2023-03-01T11:40:17;99407.66;;;-2.14;53.16
73453;BME280;61687;56.232;43.854;2023-03-01T11:43:09;99403.84;;;-2.22;52.86
73453;BME280;61687;56.232;43.854;2023-03-01T11:51:23;99416.06;;;-2.81;54.24
73453;BME280;61687;56.232;43.854;2023-03-01T11:54:06;99410.78;;;-2.72;54.23
73453;BME280;61687;56.232;43.854;2023-03-01T11:56:45;99419.91;;;-2.59;53.95
73453;BME280;61687;56.232;43.854;2023-03-01T12:05:03;99416.63;;;-2.56;53.90
73453;BME280;61687;56.232;43.854;2023-03-01T12:10:22;99410.97;;;-2.54;54.06
73453;BME280;61687;56.232;43.854;2023-03-01T12:21:28;99410.75;;;-2.58;53.70
73453;BME280;61687;56.232;43.854;2023-03-01T12:24:18;99420.19;;;-2.47;54.14
73453;BME280;61687;56.232;43.854;2023-03-01T12:35:09;99439.69;;;-2.18;53.04
73453;BME280;61687;56.232;43.854;2023-03-01T12:37:54;99442.06;;;-1.94;52.63
73453;BME280;61687;56.232;43.854;2023-03-01T12:40:51;99433.84;;;-2.20;51.94
73453;BME280;61687;56.232;43.854;2023-03-01T12:46:18;99433.88;;;-2.48;52.79
73453;BME280;61687;56.232;43.854;2023-03-01T12:51:34;99432.31;;;-2.49;52.68
73453;BME280;61687;56.232;43.854;2023-03-01T12:54:15;99432.59;;;-2.37;52.20
73453;BME280;61687;56.232;43.854;2023-03-01T12:56:42;99420.38;;;-2.06;50.50
73453;BME280;61687;56.232;43.854;2023-03-01T12:59:28;99428.34;;;-1.69;49.61
73453;BME280;61687;56.232;43.854;2023-03-01T13:02:06;99432.13;;;-1.70;49.19
73453;BME280;61687;56.232;43.854;2023-03-01T13:10:16;99422.16;;;-2.16;51.47
73453;BME280;61687;56.232;43.854;2023-03-01T13:17:53;99424.81;;;-2.38;51.55
73453;BME280;61687;56.232;43.854;2023-03-01T13:23:25;99424.28;;;-2.63;52.21
73453;BME280;61687;56.232;43.854;2023-03-01T13:28:54;99424.94;;;-2.43;52.08
73453;BME280;61687;56.232;43.854;2023-03-01T13:33:56;99422.91;;;-2.61;52.49
73453;BME280;61687;56.232;43.854;2023-03-01T13:39:00;99425.59;;;-2.61;52.83
73453;BME280;61687;56.232;43.854;2023-03-01T13:46:47;99416.69;;;-2.47;53.32
73453;BME280;61687;56.232;43.854;2023-03-01T13:49:19;99416.44;;;-2.60;53.24
73453;BME280;61687;56.232;43.854;2023-03-01T13:51:51;99417.50;;;-2.47;53.64
73453;BME280;61687;56.232;43.854;2023-03-01T13:54:26;99428.25;;;-2.61;53.20
73453;BME280;61687;56.232;43.854;2023-03-01T13:56:56;99426.78;;;-2.53;53.60
73453;BME280;61687;56.232;43.854;2023-03-01T13:59:23;99432.13;;;-2.53;53.76
73453;BME280;61687;56.232;43.854;2023-03-01T14:01:53;99430.63;;;-2.59;53.68
73453;BME280;61687;56.232;43.854;2023-03-01T14:04:26;99419.06;;;-2.82;54.02
73453;BME280;61687;56.232;43.854;2023-03-01T14:07:26;99437.03;;;-2.97;54.40
73453;BME280;61687;56.232;43.854;2023-03-01T14:10:02;99434.44;;;-3.02;54.80
73453;BME280;61687;56.232;43.854;2023-03-01T14:15:32;99427.41;;;-2.98;54.88
73453;BME280;61687;56.232;43.854;2023-03-01T14:20:53;99427.19;;;-3.02;55.20
73453;BME280;61687;56.232;43.854;2023-03-01T14:23:23;99425.22;;;-3.10;54.60
73453;BME280;61687;56.232;43.854;2023-03-01T14:25:57;99426.31;;;-3.11;54.94
73453;BME280;61687;56.232;43.854;2023-03-01T14:28:27;99428.78;;;-3.14;54.95
73453;BME280;61687;56.232;43.854;2023-03-01T14:30:55;99425.81;;;-3.27;54.98
73453;BME280;61687;56.232;43.854;2023-03-01T14:33:26;99430.63;;;-3.29;55.43
73453;BME280;61687;56.232;43.854;2023-03-01T14:35:56;99427.19;;;-3.29;55.09
73453;BME280;61687;56.232;43.854;2023-03-01T14:38:28;99426.91;;;-3.28;54.57
73453;BME280;61687;56.232;43.854;2023-03-01T14:40:58;99427.28;;;-3.35;54.01
73453;BME280;61687;56.232;43.854;2023-03-01T14:43:27;99432.63;;;-3.35;53.99
73453;BME280;61687;56.232;43.854;2023-03-01T14:45:55;99432.44;;;-3.38;54.41
73453;BME280;61687;56.232;43.854;2023-03-01T14:48:21;99459.22;;;-3.38;54.72